Time,TemperatureF,DewpointF,PressureIn,WindDirection,WindDirectionDegrees,WindSpeedMPH,WindSpeedGustMPH,Humidity,HourlyPrecipIn,Conditions,Clouds,dailyrainin,SoftwareType,DateUTC
2013-09-07 00:01:00,58.6,48.9,30.11,SE,140,0.0,0.0,70,0.00,,---,0.00,VWS V14.01,2013-09-07 04:01:00,
2013-09-07 00:02:00,58.6,48.9,30.11,SE,140,0.0,0.0,70,0.00,,---,0.00,VWS V14.01,2013-09-07 04:02:00,
2013-09-07 00:07:00,58.5,48.7,30.11,SE,140,0.0,0.0,70,0.00,,---,0.00,VWS V14.01,2013-09-07 04:07:00,
2013-09-07 00:12:00,58.5,49.1,30.11,SSE,152,0.0,0.0,71,0.00,,---,0.00,VWS V14.01,2013-09-07 04:12:00,
2013-09-07 00:17:00,58.5,49.1,30.08,SSE,152,0.0,0.0,71,0.00,,---,0.00,VWS V14.01,2013-09-07 04:17:00,
2013-09-07 00:23:00,58.5,49.1,30.08,SE,146,0.0,0.0,71,0.00,,---,0.00,VWS V14.01,2013-09-07 04:23:00,
2013-09-07 00:28:00,58.3,48.9,30.08,South,174,0.0,0.0,71,0.00,,---,0.00,VWS V14.01,2013-09-07 04:28:00,
2013-09-07 00:33:00,58.3,49.3,30.11,South,174,0.0,0.0,72,0.00,,---,0.00,VWS V14.01,2013-09-07 04:33:00,
2013-09-07 00:38:00,58.3,49.3,30.11,South,174,0.0,0.0,72,0.00,,---,0.00,VWS V14.01,2013-09-07 04:38:00,
2013-09-07 00:43:00,58.3,49.3,30.11,SSE,158,0.0,0.0,72,0.00,,---,0.00,VWS V14.01,2013-09-07 04:43:00,
2013-09-07 00:48:00,58.5,49.8,30.08,SSE,154,0.0,0.0,73,0.00,,---,0.00,VWS V14.01,2013-09-07 04:48:00,
2013-09-07 00:53:00,58.8,50.2,30.08,South,175,0.0,4.5,73,0.00,,---,0.00,VWS V14.01,2013-09-07 04:53:00,
2013-09-07 00:58:00,59.2,50.5,30.08,SSE,162,0.0,0.0,73,0.00,,---,0.00,VWS V14.01,2013-09-07 04:58:00,
2013-09-07 01:03:00,59.4,50.7,30.08,South,187,0.0,0.0,73,0.00,,---,0.00,VWS V14.01,2013-09-07 05:03:00,
2013-09-07 01:08:00,59.4,51.1,30.08,South,179,4.5,5.4,74,0.00,,---,0.00,VWS V14.01,2013-09-07 05:08:00,
2013-09-07 01:13:00,59.4,51.1,30.08,South,178,0.0,0.0,74,0.00,,---,0.00,VWS V14.01,2013-09-07 05:13:00,
2013-09-07 01:18:00,59.4,51.1,30.08,SSE,164,0.0,4.5,74,0.00,,---,0.00,VWS V14.01,2013-09-07 05:18:00,
2013-09-07 01:23:00,59.4,51.1,30.08,SSE,150,0.0,0.0,74,0.00,,---,0.00,VWS V14.01,2013-09-07 05:23:00,
2013-09-07 01:28:00,59.2,50.9,30.08,SSE,159,0.0,8.1,74,0.00,,---,0.00,VWS V14.01,2013-09-07 05:28:00,
2013-09-07 01:33:00,59.2,50.9,30.11,SSE,148,0.0,5.4,74,0.00,,---,0.00,VWS V14.01,2013-09-07 05:33:00,
2013-09-07 01:38:00,59.0,51.1,30.11,SSE,151,4.5,6.3,75,0.00,,---,0.00,VWS V14.01,2013-09-07 05:38:00,
2013-09-07 01:44:00,59.0,51.1,30.11,South,178,4.5,4.5,75,0.00,,---,0.00,VWS V14.01,2013-09-07 05:44:00,
2013-09-07 01:49:00,58.8,50.9,30.08,South,172,0.0,0.0,75,0.00,,---,0.00,VWS V14.01,2013-09-07 05:49:00,
2013-09-07 01:54:00,58.6,50.8,30.08,South,177,0.0,0.0,75,0.00,,---,0.00,VWS V14.01,2013-09-07 05:54:00,
2013-09-07 01:59:00,58.5,50.9,30.08,South,173,0.0,0.0,76,0.00,,---,0.00,VWS V14.01,2013-09-07 05:59:00,
2013-09-07 02:04:00,58.5,50.9,30.08,South,171,0.0,0.0,76,0.00,,---,0.00,VWS V14.01,2013-09-07 06:04:00,
2013-09-07 02:09:00,58.5,50.9,30.08,SSE,166,0.0,0.0,76,0.00,,---,0.00,VWS V14.01,2013-09-07 06:09:00,
2013-09-07 02:14:00,58.5,50.9,30.08,SSE,154,5.4,5.4,76,0.00,,---,0.00,VWS V14.01,2013-09-07 06:14:00,
2013-09-07 02:19:00,58.5,51.3,30.11,SSE,150,6.3,6.3,77,0.00,,---,0.00,VWS V14.01,2013-09-07 06:19:00,
2013-09-07 02:24:00,58.5,51.3,30.11,SSE,167,0.0,0.0,77,0.00,,---,0.00,VWS V14.01,2013-09-07 06:24:00,
2013-09-07 02:29:00,58.3,51.1,30.11,South,170,5.4,5.4,77,0.00,,---,0.00,VWS V14.01,2013-09-07 06:29:00,
2013-09-07 02:34:00,58.1,50.9,30.08,SSE,166,0.0,0.0,77,0.00,,---,0.00,VWS V14.01,2013-09-07 06:34:00,
2013-09-07 02:39:00,57.9,50.8,30.08,SSE,167,0.0,0.0,77,0.00,,---,0.00,VWS V14.01,2013-09-07 06:39:00,
2013-09-07 02:44:00,57.7,50.6,30.08,South,176,6.3,6.3,77,0.00,,---,0.00,VWS V14.01,2013-09-07 06:44:00,
2013-09-07 02:50:00,57.6,50.4,30.08,SSE,160,6.3,6.3,77,0.00,,---,0.00,VWS V14.01,2013-09-07 06:50:00,
2013-09-07 02:55:00,57.6,50.4,30.08,SSE,162,0.0,0.0,77,0.00,,---,0.00,VWS V14.01,2013-09-07 06:55:00,
2013-09-07 03:00:00,57.6,50.8,30.08,South,186,0.0,0.0,78,0.00,,---,0.00,VWS V14.01,2013-09-07 07:00:00,
2013-09-07 03:05:00,57.6,50.8,30.08,South,180,0.0,0.0,78,0.00,,---,0.00,VWS V14.01,2013-09-07 07:05:00,
2013-09-07 03:10:00,57.7,50.9,30.08,South,177,0.0,4.5,78,0.00,,---,0.00,VWS V14.01,2013-09-07 07:10:00,
2013-09-07 03:15:00,57.7,50.9,30.08,South,177,0.0,0.0,78,0.00,,---,0.00,VWS V14.01,2013-09-07 07:15:00,
2013-09-07 03:20:00,57.7,50.9,30.08,South,171,0.0,0.0,78,0.00,,---,0.00,VWS V14.01,2013-09-07 07:20:00,
2013-09-07 03:25:00,57.7,50.9,30.08,SSE,167,0.0,5.4,78,0.00,,---,0.00,VWS V14.01,2013-09-07 07:25:00,
2013-09-07 03:30:00,57.6,50.8,30.08,SSE,167,0.0,0.0,78,0.00,,---,0.00,VWS V14.01,2013-09-07 07:30:00,
2013-09-07 03:35:00,57.6,50.8,30.08,SSE,167,0.0,0.0,78,0.00,,---,0.00,VWS V14.01,2013-09-07 07:35:00,
2013-09-07 03:40:00,57.4,50.9,30.08,SSE,163,5.4,6.3,79,0.00,,---,0.00,VWS V14.01,2013-09-07 07:40:00,
2013-09-07 03:45:00,57.2,50.8,30.08,SSE,166,5.4,7.2,79,0.00,,---,0.00,VWS V14.01,2013-09-07 07:45:00,
2013-09-07 03:50:00,57.2,50.8,30.08,SSE,161,4.5,5.4,79,0.00,,---,0.00,VWS V14.01,2013-09-07 07:50:00,
2013-09-07 03:55:00,57.2,50.8,30.08,SSE,161,5.4,5.4,79,0.00,,---,0.00,VWS V14.01,2013-09-07 07:55:00,
2013-09-07 04:00:00,57.2,50.8,30.08,SSE,168,5.4,6.3,79,0.00,,---,0.00,VWS V14.01,2013-09-07 08:00:00,
2013-09-07 04:05:00,57.2,51.1,30.08,South,170,0.0,0.0,80,0.00,,---,0.00,VWS V14.01,2013-09-07 08:05:00,
2013-09-07 04:10:00,57.2,51.1,30.08,South,176,0.0,8.1,80,0.00,,---,0.00,VWS V14.01,2013-09-07 08:10:00,
2013-09-07 04:16:00,57.2,51.1,30.05,WSW,246,4.5,5.4,80,0.00,,---,0.00,VWS V14.01,2013-09-07 08:16:00,
2013-09-07 04:21:00,57.2,51.1,30.05,SSE,161,0.0,0.0,80,0.00,,---,0.00,VWS V14.01,2013-09-07 08:21:00,
2013-09-07 04:26:00,57.4,51.3,30.05,South,179,0.0,0.0,80,0.00,,---,0.00,VWS V14.01,2013-09-07 08:26:00,
2013-09-07 04:31:00,57.4,51.3,30.05,SSE,158,5.4,5.4,80,0.00,,---,0.00,VWS V14.01,2013-09-07 08:31:00,
2013-09-07 04:36:00,57.6,51.5,30.05,SSE,160,5.4,5.4,80,0.00,,---,0.00,VWS V14.01,2013-09-07 08:36:00,
2013-09-07 04:41:00,57.6,51.1,30.05,SSE,164,5.4,5.4,79,0.00,,---,0.00,VWS V14.01,2013-09-07 08:41:00,
2013-09-07 04:46:00,57.6,51.1,30.05,SSE,162,4.5,5.4,79,0.00,,---,0.00,VWS V14.01,2013-09-07 08:46:00,
2013-09-07 04:51:00,57.6,51.1,30.05,SSE,148,4.5,4.5,79,0.00,,---,0.00,VWS V14.01,2013-09-07 08:51:00,
2013-09-07 04:56:00,57.6,51.1,30.05,SSE,148,0.0,0.0,79,0.00,,---,0.00,VWS V14.01,2013-09-07 08:56:00,
2013-09-07 05:01:00,57.6,50.8,30.05,SE,138,0.0,0.0,78,0.00,,---,0.00,VWS V14.01,2013-09-07 09:01:00,
2013-09-07 05:06:00,57.6,50.8,30.05,SSE,159,4.5,6.3,78,0.00,,---,0.00,VWS V14.01,2013-09-07 09:06:00,
2013-09-07 05:11:00,57.6,50.8,30.05,SSE,164,5.4,5.4,78,0.00,,---,0.00,VWS V14.01,2013-09-07 09:11:00,
2013-09-07 05:16:00,57.4,50.2,30.05,SSE,164,0.0,0.0,77,0.00,,---,0.00,VWS V14.01,2013-09-07 09:16:00,
2013-09-07 05:21:00,57.2,50.1,30.05,South,172,0.0,4.5,77,0.00,,---,0.00,VWS V14.01,2013-09-07 09:21:00,
2013-09-07 05:26:00,57.2,50.1,30.05,SSE,161,6.3,7.2,77,0.00,,---,0.00,VWS V14.01,2013-09-07 09:26:00,
2013-09-07 05:31:00,57.2,49.7,30.05,South,169,0.0,6.3,76,0.00,,---,0.00,VWS V14.01,2013-09-07 09:31:00,
2013-09-07 05:36:00,57.2,49.7,30.05,South,170,0.0,4.5,76,0.00,,---,0.00,VWS V14.01,2013-09-07 09:36:00,
2013-09-07 05:41:00,57.0,49.5,30.05,South,170,4.5,4.5,76,0.00,,---,0.00,VWS V14.01,2013-09-07 09:41:00,
2013-09-07 05:46:00,57.0,49.2,30.05,South,179,0.0,0.0,75,0.00,,---,0.00,VWS V14.01,2013-09-07 09:46:00,
2013-09-07 05:52:00,57.0,49.2,30.05,South,170,4.5,4.5,75,0.00,,---,0.00,VWS V14.01,2013-09-07 09:52:00,
2013-09-07 05:57:00,56.8,49.0,30.05,South,170,0.0,0.0,75,0.00,,---,0.00,VWS V14.01,2013-09-07 09:57:00,
2013-09-07 06:02:00,56.8,49.0,30.05,SSE,161,0.0,0.0,75,0.00,,---,0.00,VWS V14.01,2013-09-07 10:02:00,
2013-09-07 06:07:00,56.8,49.0,30.05,SSE,160,5.4,5.4,75,0.00,,---,0.00,VWS V14.01,2013-09-07 10:07:00,
2013-09-07 06:12:00,57.0,49.2,30.05,SW,222,0.0,0.0,75,0.00,,---,0.00,VWS V14.01,2013-09-07 10:12:00,
2013-09-07 06:17:00,57.4,49.2,30.05,South,180,0.0,0.0,74,0.00,,---,0.00,VWS V14.01,2013-09-07 10:17:00,
2013-09-07 06:22:00,57.7,49.5,30.05,SSE,158,0.0,0.0,74,0.00,,---,0.00,VWS V14.01,2013-09-07 10:22:00,
2013-09-07 06:27:00,57.9,49.7,30.05,SSE,147,5.4,6.3,74,0.00,,---,0.00,VWS V14.01,2013-09-07 10:27:00,
2013-09-07 06:32:00,58.1,49.5,30.05,SSE,165,0.0,0.0,73,0.00,,---,0.00,VWS V14.01,2013-09-07 10:32:00,
2013-09-07 06:37:00,58.1,49.5,30.05,SSE,165,0.0,0.0,73,0.00,,---,0.00,VWS V14.01,2013-09-07 10:37:00,
2013-09-07 06:42:00,58.1,49.5,30.05,SSE,164,0.0,0.0,73,0.00,,---,0.00,VWS V14.01,2013-09-07 10:42:00,
2013-09-07 06:47:00,58.1,49.5,30.05,South,177,0.0,0.0,73,0.00,,---,0.00,VWS V14.01,2013-09-07 10:47:00,
2013-09-07 06:52:00,58.1,49.5,30.05,SSE,148,5.4,5.4,73,0.00,,---,0.00,VWS V14.01,2013-09-07 10:52:00,
2013-09-07 06:57:00,58.3,49.3,30.05,SSE,163,5.4,5.4,72,0.00,,---,0.00,VWS V14.01,2013-09-07 10:57:00,
2013-09-07 07:03:00,58.1,49.1,30.05,SSE,158,5.4,5.4,72,0.00,,---,0.00,VWS V14.01,2013-09-07 11:03:00,
2013-09-07 07:08:00,57.9,49.0,30.05,SSE,158,4.5,4.5,72,0.00,,---,0.00,VWS V14.01,2013-09-07 11:08:00,
2013-09-07 07:13:00,57.9,49.0,30.05,SSE,158,0.0,5.4,72,0.00,,---,0.00,VWS V14.01,2013-09-07 11:13:00,
2013-09-07 07:18:00,57.7,49.2,30.05,SSE,165,5.4,6.3,73,0.00,,---,0.00,VWS V14.01,2013-09-07 11:18:00,
2013-09-07 07:23:00,57.7,49.2,30.05,SSE,164,4.5,4.5,73,0.00,,---,0.00,VWS V14.01,2013-09-07 11:23:00,
2013-09-07 07:28:00,57.7,49.2,30.05,SSE,164,0.0,0.0,73,0.00,,---,0.00,VWS V14.01,2013-09-07 11:28:00,
2013-09-07 07:33:00,57.7,49.2,30.05,SW,231,0.0,0.0,73,0.00,,---,0.00,VWS V14.01,2013-09-07 11:33:00,
2013-09-07 07:38:00,57.9,49.3,30.05,SSE,156,0.0,0.0,73,0.00,,---,0.00,VWS V14.01,2013-09-07 11:38:00,
2013-09-07 07:43:00,58.1,49.5,30.05,SSE,158,4.5,6.3,73,0.00,,---,0.00,VWS V14.01,2013-09-07 11:43:00,
2013-09-07 07:48:00,58.3,49.7,30.05,SSE,158,0.0,4.5,73,0.00,,---,0.00,VWS V14.01,2013-09-07 11:48:00,
2013-09-07 07:53:00,58.5,49.8,30.05,SSE,152,4.5,5.4,73,0.00,,---,0.00,VWS V14.01,2013-09-07 11:53:00,
2013-09-07 07:58:00,58.8,50.2,30.05,SSE,152,0.0,0.0,73,0.00,,---,0.00,VWS V14.01,2013-09-07 11:58:00,
2013-09-07 08:03:00,58.8,50.2,30.05,SSE,152,0.0,0.0,73,0.00,,---,0.00,VWS V14.01,2013-09-07 12:03:00,
2013-09-07 08:08:00,59.0,50.0,30.05,SSE,152,0.0,0.0,72,0.00,,---,0.00,VWS V14.01,2013-09-07 12:08:00,
2013-09-07 08:13:00,59.0,50.0,30.05,SSE,152,0.0,0.0,72,0.00,,---,0.00,VWS V14.01,2013-09-07 12:13:00,
2013-09-07 08:18:00,59.4,50.7,30.05,SSE,152,0.0,0.0,73,0.00,,---,0.00,VWS V14.01,2013-09-07 12:18:00,
2013-09-07 08:23:00,59.4,50.7,30.05,SSE,152,0.0,0.0,73,0.00,,---,0.00,VWS V14.01,2013-09-07 12:23:00,
2013-09-07 08:28:00,59.5,50.9,30.05,SSE,152,0.0,0.0,73,0.00,,---,0.00,VWS V14.01,2013-09-07 12:28:00,
2013-09-07 08:33:00,59.7,51.1,30.05,SSE,152,0.0,0.0,73,0.00,,---,0.00,VWS V14.01,2013-09-07 12:33:00,
2013-09-07 08:38:00,59.9,51.2,30.05,SSE,152,0.0,0.0,73,0.00,,---,0.00,VWS V14.01,2013-09-07 12:38:00,
2013-09-07 08:44:00,60.3,51.6,30.05,SSE,155,4.5,4.5,73,0.00,,---,0.00,VWS V14.01,2013-09-07 12:44:00,
2013-09-07 08:49:00,60.6,52.3,30.02,South,176,8.1,8.9,74,0.00,,---,0.00,VWS V14.01,2013-09-07 12:49:00,
2013-09-07 08:54:00,61.0,52.3,30.02,SSE,149,6.3,7.2,73,0.00,,---,0.00,VWS V14.01,2013-09-07 12:54:00,
2013-09-07 08:59:00,61.3,52.6,30.02,SSE,149,0.0,0.0,73,0.00,,---,0.00,VWS V14.01,2013-09-07 12:59:00,
2013-09-07 09:04:00,61.7,53.0,30.02,SSE,161,0.0,5.4,73,0.00,,---,0.00,VWS V14.01,2013-09-07 13:04:00,
2013-09-07 09:09:00,61.9,53.1,30.02,SSE,167,6.3,6.3,73,0.00,,---,0.00,VWS V14.01,2013-09-07 13:09:00,
2013-09-07 09:14:00,62.4,53.7,30.02,South,172,8.1,8.1,73,0.00,,---,0.00,VWS V14.01,2013-09-07 13:14:00,
2013-09-07 09:19:00,63.0,54.2,30.02,South,179,0.0,0.0,73,0.00,,---,0.00,VWS V14.01,2013-09-07 13:19:00,
2013-09-07 09:24:00,63.7,54.9,30.02,SSE,149,0.0,0.0,73,0.00,,---,0.00,VWS V14.01,2013-09-07 13:24:00,
2013-09-07 09:29:00,64.0,55.2,30.02,SSE,149,0.0,0.0,73,0.00,,---,0.00,VWS V14.01,2013-09-07 13:29:00,
2013-09-07 09:34:00,64.8,55.5,30.02,South,175,0.0,4.5,72,0.00,,---,0.00,VWS V14.01,2013-09-07 13:34:00,
2013-09-07 09:39:00,65.3,56.0,30.02,SW,234,0.0,0.0,72,0.00,,---,0.00,VWS V14.01,2013-09-07 13:39:00,
2013-09-07 09:44:00,66.0,56.7,30.02,SSE,168,0.0,0.0,72,0.00,,---,0.00,VWS V14.01,2013-09-07 13:44:00,
2013-09-07 09:49:00,66.6,57.3,30.02,SW,224,5.4,6.3,72,0.00,,---,0.00,VWS V14.01,2013-09-07 13:49:00,
2013-09-07 09:54:00,67.3,57.6,30.02,South,186,0.0,6.3,71,0.00,,---,0.00,VWS V14.01,2013-09-07 13:54:00,
2013-09-07 09:59:00,67.8,58.5,30.02,SW,230,6.3,6.3,72,0.00,,---,0.00,VWS V14.01,2013-09-07 13:59:00,
2013-09-07 10:04:00,68.4,59.0,30.02,South,180,7.2,7.2,72,0.00,,---,0.00,VWS V14.01,2013-09-07 14:04:00,
2013-09-07 10:09:00,68.7,59.3,30.02,WSW,239,0.0,8.1,72,0.00,,---,0.00,VWS V14.01,2013-09-07 14:09:00,
2013-09-07 10:14:00,69.3,59.9,30.02,NW,315,7.2,7.2,72,0.00,,---,0.00,VWS V14.01,2013-09-07 14:14:00,
2013-09-07 10:20:00,69.8,60.0,30.02,SSW,203,4.5,5.4,71,0.00,,---,0.00,VWS V14.01,2013-09-07 14:20:00,
2013-09-07 10:25:00,70.3,60.5,30.02,WSW,250,0.0,0.0,71,0.00,,---,0.00,VWS V14.01,2013-09-07 14:25:00,
2013-09-07 10:30:00,70.5,60.7,30.02,WSW,237,0.0,0.0,71,0.00,,---,0.00,VWS V14.01,2013-09-07 14:30:00,
2013-09-07 10:35:00,70.5,60.3,30.02,WNW,286,11.6,11.6,70,0.00,,---,0.00,VWS V14.01,2013-09-07 14:35:00,
2013-09-07 10:40:00,70.7,60.5,30.02,SSW,212,0.0,0.0,70,0.00,,---,0.00,VWS V14.01,2013-09-07 14:40:00,
2013-09-07 10:45:00,71.1,60.4,30.02,WSW,243,8.1,8.9,69,0.00,,---,0.00,VWS V14.01,2013-09-07 14:45:00,
2013-09-07 10:50:00,71.4,60.7,30.02,South,190,4.5,5.4,69,0.00,,---,0.00,VWS V14.01,2013-09-07 14:50:00,
2013-09-07 10:55:00,71.6,60.9,30.02,SSW,212,0.0,5.4,69,0.00,,---,0.00,VWS V14.01,2013-09-07 14:55:00,
2013-09-07 11:00:00,72.0,61.2,30.02,SSE,165,6.3,7.2,69,0.00,,---,0.00,VWS V14.01,2013-09-07 15:00:00,
2013-09-07 11:05:00,72.3,61.2,30.02,NW,320,0.0,0.0,68,0.00,,---,0.00,VWS V14.01,2013-09-07 15:05:00,
2013-09-07 11:10:00,72.5,61.8,30.02,WNW,287,9.8,11.6,69,0.00,,---,0.00,VWS V14.01,2013-09-07 15:10:00,
2013-09-07 11:15:00,72.9,61.3,30.02,SW,233,7.2,16.1,67,0.00,,---,0.00,VWS V14.01,2013-09-07 15:15:00,
2013-09-07 11:20:00,73.4,62.2,30.02,South,173,6.3,11.6,68,0.00,,---,0.00,VWS V14.01,2013-09-07 15:20:00,
2013-09-07 11:25:00,73.8,62.1,30.02,SW,227,5.4,5.4,67,0.00,,---,0.00,VWS V14.01,2013-09-07 15:25:00,
2013-09-07 11:30:00,74.1,62.5,30.02,WNW,294,0.0,6.3,67,0.00,,---,0.00,VWS V14.01,2013-09-07 15:30:00,
2013-09-07 11:35:00,74.1,62.0,30.02,SSW,210,8.1,11.6,66,0.00,,---,0.00,VWS V14.01,2013-09-07 15:35:00,
2013-09-07 11:40:00,74.1,62.0,30.02,West,275,6.3,6.3,66,0.00,,---,0.00,VWS V14.01,2013-09-07 15:40:00,
2013-09-07 11:45:00,74.1,62.5,30.02,SW,231,7.2,8.1,67,0.00,,---,0.00,VWS V14.01,2013-09-07 15:45:00,
2013-09-07 11:50:00,74.1,62.5,30.02,West,270,8.9,8.9,67,0.00,,---,0.00,VWS V14.01,2013-09-07 15:50:00,
2013-09-07 11:55:00,74.5,63.2,30.02,NNW,334,6.3,6.3,68,0.00,,---,0.00,VWS V14.01,2013-09-07 15:55:00,
2013-09-07 12:01:00,74.8,63.6,30.02,WNW,287,10.7,11.6,68,0.00,,---,0.00,VWS V14.01,2013-09-07 16:01:00,
2013-09-07 12:06:00,75.4,63.2,30.02,South,181,0.0,0.0,66,0.00,,---,0.00,VWS V14.01,2013-09-07 16:06:00,
2013-09-07 12:11:00,75.9,62.9,30.02,WNW,282,9.8,9.8,64,0.00,,---,0.00,VWS V14.01,2013-09-07 16:11:00,
2013-09-07 12:16:00,76.5,63.8,30.02,North,7,7.2,8.1,65,0.00,,---,0.00,VWS V14.01,2013-09-07 16:16:00,
2013-09-07 12:21:00,77.2,62.7,30.02,NW,308,7.2,12.5,61,0.00,,---,0.00,VWS V14.01,2013-09-07 16:21:00,
2013-09-07 12:26:00,77.7,63.2,30.02,NW,306,8.1,8.1,61,0.00,,---,0.00,VWS V14.01,2013-09-07 16:26:00,
2013-09-07 12:31:00,78.1,63.1,30.02,WNW,294,5.4,8.1,60,0.00,,---,0.00,VWS V14.01,2013-09-07 16:31:00,
2013-09-07 12:36:00,78.4,63.9,30.02,SSE,157,6.3,6.3,61,0.00,,---,0.00,VWS V14.01,2013-09-07 16:36:00,
2013-09-07 12:41:00,79.0,63.9,30.02,SW,223,11.6,11.6,60,0.00,,---,0.00,VWS V14.01,2013-09-07 16:41:00,
2013-09-07 12:46:00,79.2,62.6,29.99,WNW,285,11.6,11.6,57,0.00,,---,0.00,VWS V14.01,2013-09-07 16:46:00,
2013-09-07 12:51:00,79.3,63.3,29.99,WNW,303,7.2,7.2,58,0.00,,---,0.00,VWS V14.01,2013-09-07 16:51:00,
2013-09-07 12:56:00,79.5,62.5,29.99,NNW,348,6.3,8.1,56,0.00,,---,0.00,VWS V14.01,2013-09-07 16:56:00,
2013-09-07 13:01:00,79.2,62.6,29.99,WNW,283,7.2,7.2,57,0.00,,---,0.00,VWS V14.01,2013-09-07 17:01:00,
2013-09-07 13:06:00,78.8,61.3,29.99,WSW,258,4.5,8.1,55,0.00,,---,0.00,VWS V14.01,2013-09-07 17:06:00,
2013-09-07 13:11:00,78.4,61.0,29.99,WSW,242,8.1,8.1,55,0.00,,---,0.00,VWS V14.01,2013-09-07 17:11:00,
2013-09-07 13:16:00,78.3,61.3,29.99,WSW,243,5.4,7.2,56,0.00,,---,0.00,VWS V14.01,2013-09-07 17:16:00,
2013-09-07 13:21:00,77.9,60.5,29.99,ENE,71,7.2,12.5,55,0.00,,---,0.00,VWS V14.01,2013-09-07 17:21:00,
2013-09-07 13:26:00,77.2,61.3,29.99,NW,307,0.0,6.3,58,0.00,,---,0.00,VWS V14.01,2013-09-07 17:26:00,
2013-09-07 13:31:00,76.5,61.1,29.99,WNW,302,0.0,0.0,59,0.00,,---,0.00,VWS V14.01,2013-09-07 17:31:00,
2013-09-07 13:37:00,76.1,61.2,29.99,West,259,7.2,7.2,60,0.00,,---,0.00,VWS V14.01,2013-09-07 17:37:00,
2013-09-07 13:42:00,75.6,61.6,29.99,West,275,0.0,0.0,62,0.00,,---,0.00,VWS V14.01,2013-09-07 17:42:00,
2013-09-07 13:47:00,75.0,61.6,29.99,NW,306,0.0,0.0,63,0.00,,---,0.00,VWS V14.01,2013-09-07 17:47:00,
2013-09-07 13:52:00,74.8,61.9,29.99,NW,306,0.0,0.0,64,0.00,,---,0.00,VWS V14.01,2013-09-07 17:52:00,
2013-09-07 13:57:00,74.7,62.1,29.99,NW,306,0.0,0.0,65,0.00,,---,0.00,VWS V14.01,2013-09-07 17:57:00,
2013-09-07 14:02:00,74.3,62.2,29.99,SSW,205,0.0,0.0,66,0.00,,---,0.00,VWS V14.01,2013-09-07 18:02:00,
2013-09-07 14:07:00,74.1,62.0,29.99,WSW,241,0.0,0.0,66,0.00,,---,0.00,VWS V14.01,2013-09-07 18:07:00,
2013-09-07 14:12:00,73.8,62.5,29.99,WSW,249,0.0,0.0,68,0.00,,---,0.00,VWS V14.01,2013-09-07 18:12:00,
2013-09-07 14:17:00,73.4,62.2,29.99,WSW,251,0.0,0.0,68,0.00,,---,0.00,VWS V14.01,2013-09-07 18:17:00,
2013-09-07 14:22:00,73.2,62.5,29.99,WSW,251,0.0,0.0,69,0.00,,---,0.00,VWS V14.01,2013-09-07 18:22:00,
2013-09-07 14:27:00,73.0,62.7,29.99,WSW,251,0.0,0.0,70,0.00,,---,0.00,VWS V14.01,2013-09-07 18:27:00,
2013-09-07 14:32:00,72.9,63.3,29.99,WSW,251,0.0,0.0,72,0.04,,---,0.04,VWS V14.01,2013-09-07 18:32:00,
2013-09-07 14:37:00,72.5,63.0,29.99,WSW,251,0.0,0.0,72,0.04,,---,0.04,VWS V14.01,2013-09-07 18:37:00,
2013-09-07 14:42:00,72.3,63.2,29.99,WSW,251,0.0,0.0,73,0.04,,---,0.04,VWS V14.01,2013-09-07 18:42:00,
2013-09-07 14:47:00,72.1,63.4,29.96,WSW,251,0.0,0.0,74,0.04,,---,0.04,VWS V14.01,2013-09-07 18:47:00,
2013-09-07 14:52:00,72.1,63.8,29.96,WSW,251,0.0,0.0,75,0.04,,---,0.04,VWS V14.01,2013-09-07 18:52:00,
2013-09-07 14:57:00,72.0,64.0,29.96,WSW,251,0.0,0.0,76,0.04,,---,0.04,VWS V14.01,2013-09-07 18:57:00,
2013-09-07 15:02:00,72.0,64.4,29.96,WSW,251,0.0,0.0,77,0.04,,---,0.04,VWS V14.01,2013-09-07 19:02:00,
2013-09-07 15:07:00,72.0,64.7,29.96,WSW,251,0.0,0.0,78,0.04,,---,0.04,VWS V14.01,2013-09-07 19:07:00,
2013-09-07 15:12:00,72.0,64.7,29.96,WSW,251,0.0,0.0,78,0.04,,---,0.04,VWS V14.01,2013-09-07 19:12:00,
2013-09-07 15:17:00,72.1,65.3,29.96,WSW,251,0.0,0.0,79,0.04,,---,0.04,VWS V14.01,2013-09-07 19:17:00,
2013-09-07 15:23:00,72.1,65.3,29.96,West,266,0.0,0.0,79,0.04,,---,0.04,VWS V14.01,2013-09-07 19:23:00,
2013-09-07 15:28:00,72.1,65.6,29.96,West,267,0.0,0.0,80,0.04,,---,0.04,VWS V14.01,2013-09-07 19:28:00,
2013-09-07 15:33:00,72.1,65.6,29.96,West,267,0.0,0.0,80,0.00,,---,0.04,VWS V14.01,2013-09-07 19:33:00,
2013-09-07 15:38:00,72.1,66.0,29.96,WSW,247,0.0,0.0,81,0.00,,---,0.04,VWS V14.01,2013-09-07 19:38:00,
2013-09-07 15:43:00,72.3,66.2,29.96,WSW,251,0.0,0.0,81,0.00,,---,0.04,VWS V14.01,2013-09-07 19:43:00,
2013-09-07 15:48:00,72.5,66.7,29.96,NNE,25,0.0,0.0,82,0.00,,---,0.04,VWS V14.01,2013-09-07 19:48:00,
2013-09-07 15:53:00,72.7,67.2,29.96,WNW,293,0.0,0.0,83,0.00,,---,0.04,VWS V14.01,2013-09-07 19:53:00,
2013-09-07 15:58:00,73.0,67.6,29.96,NW,326,0.0,7.2,83,0.00,,---,0.04,VWS V14.01,2013-09-07 19:58:00,
2013-09-07 16:03:00,73.4,67.9,29.96,NNW,328,0.0,7.2,83,0.00,,---,0.04,VWS V14.01,2013-09-07 20:03:00,
2013-09-07 16:08:00,73.6,68.1,29.96,NW,306,0.0,0.0,83,0.00,,---,0.04,VWS V14.01,2013-09-07 20:08:00,
2013-09-07 16:13:00,73.8,68.3,29.96,WSW,242,0.0,7.2,83,0.00,,---,0.04,VWS V14.01,2013-09-07 20:13:00,
2013-09-07 16:18:00,73.8,67.9,29.96,WSW,252,0.0,0.0,82,0.00,,---,0.04,VWS V14.01,2013-09-07 20:18:00,
2013-09-07 16:23:00,73.6,67.8,29.96,WSW,253,0.0,0.0,82,0.00,,---,0.04,VWS V14.01,2013-09-07 20:23:00,
2013-09-07 16:28:00,73.4,67.6,29.96,SW,235,6.3,8.1,82,0.00,,---,0.04,VWS V14.01,2013-09-07 20:28:00,
2013-09-07 16:34:00,73.2,67.4,29.96,SSE,156,9.8,9.8,82,0.00,,---,0.04,VWS V14.01,2013-09-07 20:34:00,
2013-09-07 16:39:00,72.9,67.1,29.96,East,84,0.0,0.0,82,0.00,,---,0.04,VWS V14.01,2013-09-07 20:39:00,
2013-09-07 16:44:00,72.5,66.7,29.96,WSW,254,0.0,0.0,82,0.00,,---,0.04,VWS V14.01,2013-09-07 20:44:00,
2013-09-07 16:49:00,72.3,66.5,29.96,WNW,291,8.1,8.1,82,0.00,,---,0.04,VWS V14.01,2013-09-07 20:49:00,
2013-09-07 16:54:00,72.1,66.3,29.96,West,278,5.4,6.3,82,0.00,,---,0.04,VWS V14.01,2013-09-07 20:54:00,
2013-09-07 16:59:00,72.5,67.1,29.96,West,268,0.0,0.0,83,0.00,,---,0.04,VWS V14.01,2013-09-07 20:59:00,
2013-09-07 17:04:00,72.9,67.4,29.96,SW,221,0.0,0.0,83,0.00,,---,0.04,VWS V14.01,2013-09-07 21:04:00,
2013-09-07 17:09:00,73.2,67.8,29.96,ESE,112,0.0,0.0,83,0.00,,---,0.04,VWS V14.01,2013-09-07 21:09:00,
2013-09-07 17:14:00,73.6,67.8,29.96,East,101,0.0,0.0,82,0.00,,---,0.04,VWS V14.01,2013-09-07 21:14:00,
2013-09-07 17:19:00,73.9,67.8,29.96,SSW,193,5.4,6.3,81,0.00,,---,0.04,VWS V14.01,2013-09-07 21:19:00,
2013-09-07 17:24:00,74.3,68.1,29.96,SSE,149,6.3,6.3,81,0.00,,---,0.04,VWS V14.01,2013-09-07 21:24:00,
2013-09-07 17:29:00,74.7,68.1,29.96,SE,143,6.3,6.3,80,0.00,,---,0.04,VWS V14.01,2013-09-07 21:29:00,
2013-09-07 17:34:00,74.5,67.2,29.96,SE,143,10.7,10.7,78,0.00,,---,0.04,VWS V14.01,2013-09-07 21:34:00,
2013-09-07 17:39:00,74.7,67.0,29.96,SE,136,4.5,9.8,77,0.00,,---,0.04,VWS V14.01,2013-09-07 21:39:00,
2013-09-07 17:44:00,74.5,65.3,29.96,West,266,0.0,8.1,73,0.00,,---,0.04,VWS V14.01,2013-09-07 21:44:00,
2013-09-07 17:49:00,74.7,66.2,29.96,West,276,0.0,0.0,75,0.00,,---,0.04,VWS V14.01,2013-09-07 21:49:00,
2013-09-07 17:55:00,74.5,65.7,29.96,SSE,157,0.0,0.0,74,0.00,,---,0.04,VWS V14.01,2013-09-07 21:55:00,
2013-09-07 18:00:00,74.3,65.5,29.96,West,275,0.0,0.0,74,0.00,,---,0.04,VWS V14.01,2013-09-07 22:00:00,
2013-09-07 18:05:00,74.3,65.5,29.96,WSW,242,0.0,0.0,74,0.00,,---,0.04,VWS V14.01,2013-09-07 22:05:00,
2013-09-07 18:10:00,74.1,65.3,29.96,WSW,254,0.0,0.0,74,0.00,,---,0.04,VWS V14.01,2013-09-07 22:10:00,
2013-09-07 18:15:00,74.1,65.3,29.96,WSW,254,0.0,0.0,74,0.00,,---,0.04,VWS V14.01,2013-09-07 22:15:00,
2013-09-07 18:20:00,73.9,65.1,29.96,WSW,242,0.0,0.0,74,0.00,,---,0.04,VWS V14.01,2013-09-07 22:20:00,
2013-09-07 18:25:00,73.8,65.0,29.96,WSW,242,0.0,0.0,74,0.00,,---,0.04,VWS V14.01,2013-09-07 22:25:00,
2013-09-07 18:30:00,73.6,64.8,29.96,West,259,0.0,0.0,74,0.00,,---,0.04,VWS V14.01,2013-09-07 22:30:00,
2013-09-07 18:35:00,73.4,64.6,29.96,West,259,0.0,0.0,74,0.00,,---,0.04,VWS V14.01,2013-09-07 22:35:00,
2013-09-07 18:40:00,73.0,64.7,29.96,West,259,0.0,0.0,75,0.00,,---,0.04,VWS V14.01,2013-09-07 22:40:00,
2013-09-07 18:45:00,72.9,64.5,29.93,WSW,243,0.0,0.0,75,0.00,,---,0.04,VWS V14.01,2013-09-07 22:45:00,
2013-09-07 18:50:00,72.5,64.5,29.93,WSW,243,0.0,0.0,76,0.00,,---,0.04,VWS V14.01,2013-09-07 22:50:00,
2013-09-07 18:55:00,72.3,64.3,29.93,WSW,243,0.0,0.0,76,0.00,,---,0.04,VWS V14.01,2013-09-07 22:55:00,
2013-09-07 19:00:00,72.0,64.0,29.93,WSW,243,0.0,0.0,76,0.00,,---,0.04,VWS V14.01,2013-09-07 23:00:00,
2013-09-07 19:05:00,71.6,64.0,29.93,WSW,243,0.0,0.0,77,0.00,,---,0.04,VWS V14.01,2013-09-07 23:05:00,
2013-09-07 19:11:00,71.2,64.0,29.93,SE,136,0.0,0.0,78,0.00,,---,0.04,VWS V14.01,2013-09-07 23:11:00,
2013-09-07 19:16:00,70.9,63.7,29.93,ESE,109,0.0,0.0,78,0.00,,---,0.04,VWS V14.01,2013-09-07 23:16:00,
2013-09-07 19:21:00,70.9,64.1,29.93,ESE,109,0.0,0.0,79,0.00,,---,0.04,VWS V14.01,2013-09-07 23:21:00,
2013-09-07 19:26:00,70.5,63.7,29.93,SSE,150,0.0,0.0,79,0.00,,---,0.04,VWS V14.01,2013-09-07 23:26:00,
2013-09-07 19:31:00,70.2,63.7,29.93,SSE,153,5.4,5.4,80,0.00,,---,0.04,VWS V14.01,2013-09-07 23:31:00,
2013-09-07 19:36:00,70.0,63.5,29.93,SSE,158,0.0,0.0,80,0.00,,---,0.04,VWS V14.01,2013-09-07 23:36:00,
2013-09-07 19:41:00,69.8,63.7,29.93,SW,223,0.0,0.0,81,0.00,,---,0.04,VWS V14.01,2013-09-07 23:41:00,
2013-09-07 19:46:00,69.6,63.5,29.93,SSE,150,0.0,0.0,81,0.00,,---,0.04,VWS V14.01,2013-09-07 23:46:00,
2013-09-07 19:51:00,69.6,63.9,29.93,SSE,150,0.0,0.0,82,0.00,,---,0.04,VWS V14.01,2013-09-07 23:51:00,
2013-09-07 19:56:00,69.4,63.7,29.93,SSE,150,0.0,0.0,82,0.00,,---,0.04,VWS V14.01,2013-09-07 23:56:00,
2013-09-07 20:01:00,69.4,64.1,29.93,SSE,150,0.0,0.0,83,0.00,,---,0.04,VWS V14.01,2013-09-08 00:01:00,
2013-09-07 20:06:00,69.4,64.1,29.93,SSE,150,0.0,0.0,83,0.00,,---,0.04,VWS V14.01,2013-09-08 00:06:00,
2013-09-07 20:11:00,69.3,63.9,29.93,SSE,150,0.0,0.0,83,0.00,,---,0.04,VWS V14.01,2013-09-08 00:11:00,
2013-09-07 20:16:00,69.3,63.9,29.93,SSE,150,0.0,0.0,83,0.00,,---,0.04,VWS V14.01,2013-09-08 00:16:00,
2013-09-07 20:22:00,69.1,64.1,29.93,SSE,150,0.0,0.0,84,0.00,,---,0.04,VWS V14.01,2013-09-08 00:22:00,
2013-09-07 20:27:00,69.1,64.1,29.93,SSE,150,0.0,0.0,84,0.00,,---,0.04,VWS V14.01,2013-09-08 00:27:00,
2013-09-07 20:32:00,68.9,64.2,29.93,SSE,150,0.0,0.0,85,0.00,,---,0.04,VWS V14.01,2013-09-08 00:32:00,
2013-09-07 20:37:00,68.9,64.2,29.93,SSE,150,0.0,0.0,85,0.00,,---,0.04,VWS V14.01,2013-09-08 00:37:00,
2013-09-07 20:42:00,68.9,64.2,29.93,SSE,150,0.0,0.0,85,0.00,,---,0.04,VWS V14.01,2013-09-08 00:42:00,
2013-09-07 20:47:00,68.7,64.4,29.93,SSE,150,0.0,0.0,86,0.00,,---,0.04,VWS V14.01,2013-09-08 00:47:00,
2013-09-07 20:52:00,68.9,64.6,29.93,SSE,150,0.0,0.0,86,0.00,,---,0.04,VWS V14.01,2013-09-08 00:52:00,
2013-09-07 20:57:00,68.9,64.6,29.93,SSE,150,0.0,0.0,86,0.00,,---,0.04,VWS V14.01,2013-09-08 00:57:00,
2013-09-07 21:02:00,68.9,64.9,29.96,SSE,150,0.0,0.0,87,0.00,,---,0.04,VWS V14.01,2013-09-08 01:02:00,
2013-09-07 21:07:00,68.9,64.9,29.96,WSW,246,0.0,0.0,87,0.00,,---,0.04,VWS V14.01,2013-09-08 01:07:00,
2013-09-07 21:12:00,68.9,64.9,29.96,WSW,239,0.0,0.0,87,0.00,,---,0.04,VWS V14.01,2013-09-08 01:12:00,
2013-09-07 21:17:00,68.7,64.7,29.96,NW,307,0.0,0.0,87,0.00,,---,0.04,VWS V14.01,2013-09-08 01:17:00,
2013-09-07 21:22:00,68.7,65.0,29.96,SW,217,0.0,0.0,88,0.00,,---,0.04,VWS V14.01,2013-09-08 01:22:00,
2013-09-07 21:27:00,68.7,65.0,29.96,WSW,250,9.8,13.4,88,0.00,,---,0.04,VWS V14.01,2013-09-08 01:27:00,
2013-09-07 21:33:00,68.7,65.0,29.96,WSW,250,0.0,0.0,88,0.00,,---,0.04,VWS V14.01,2013-09-08 01:33:00,
2013-09-07 21:38:00,68.7,65.0,29.96,West,270,0.0,0.0,88,0.00,,---,0.04,VWS V14.01,2013-09-08 01:38:00,
2013-09-07 21:43:00,68.7,65.0,29.96,WNW,295,0.0,0.0,88,0.00,,---,0.04,VWS V14.01,2013-09-08 01:43:00,
2013-09-07 21:48:00,68.7,65.0,29.96,West,267,0.0,0.0,88,0.00,,---,0.04,VWS V14.01,2013-09-08 01:48:00,
2013-09-07 21:53:00,68.5,64.8,29.96,West,264,0.0,0.0,88,0.00,,---,0.04,VWS V14.01,2013-09-08 01:53:00,
2013-09-07 21:58:00,68.5,64.8,29.96,WNW,288,0.0,0.0,88,0.00,,---,0.04,VWS V14.01,2013-09-08 01:58:00,
2013-09-07 22:03:00,68.5,64.8,29.96,West,279,0.0,0.0,88,0.00,,---,0.04,VWS V14.01,2013-09-08 02:03:00,
2013-09-07 22:08:00,68.5,64.8,29.96,WSW,237,0.0,0.0,88,0.00,,---,0.04,VWS V14.01,2013-09-08 02:08:00,
2013-09-07 22:13:00,68.5,64.8,29.96,NNE,14,0.0,0.0,88,0.00,,---,0.04,VWS V14.01,2013-09-08 02:13:00,
2013-09-07 22:18:00,68.7,65.0,29.96,West,275,0.0,0.0,88,0.00,,---,0.04,VWS V14.01,2013-09-08 02:18:00,
2013-09-07 22:23:00,68.7,65.3,29.96,WSW,254,0.0,4.5,89,0.00,,---,0.04,VWS V14.01,2013-09-08 02:23:00,
2013-09-07 22:28:00,68.9,65.5,29.96,WSW,240,0.0,6.3,89,0.00,,---,0.04,VWS V14.01,2013-09-08 02:28:00,
2013-09-07 22:33:00,68.9,65.5,29.96,WNW,288,5.4,5.4,89,0.00,,---,0.04,VWS V14.01,2013-09-08 02:33:00,
2013-09-07 22:38:00,68.9,65.5,29.96,West,265,0.0,0.0,89,0.00,,---,0.04,VWS V14.01,2013-09-08 02:38:00,
2013-09-07 22:43:00,68.9,65.2,29.96,NNW,343,0.0,0.0,88,0.00,,---,0.04,VWS V14.01,2013-09-08 02:43:00,
2013-09-07 22:49:00,68.9,65.2,29.96,NW,315,0.0,0.0,88,0.00,,---,0.04,VWS V14.01,2013-09-08 02:49:00,
2013-09-07 22:54:00,68.9,65.2,29.96,NW,313,0.0,0.0,88,0.00,,---,0.04,VWS V14.01,2013-09-08 02:54:00,
2013-09-07 22:59:00,68.9,65.2,29.96,NW,313,0.0,0.0,88,0.00,,---,0.04,VWS V14.01,2013-09-08 02:59:00,
2013-09-07 23:04:00,68.9,65.2,29.96,NW,307,0.0,0.0,88,0.00,,---,0.04,VWS V14.01,2013-09-08 03:04:00,
2013-09-07 23:09:00,68.9,65.2,29.96,WNW,288,0.0,0.0,88,0.00,,---,0.04,VWS V14.01,2013-09-08 03:09:00,
2013-09-07 23:14:00,68.9,65.2,29.96,WNW,288,0.0,0.0,88,0.00,,---,0.04,VWS V14.01,2013-09-08 03:14:00,
2013-09-07 23:19:00,68.9,65.2,29.96,West,272,0.0,0.0,88,0.00,,---,0.04,VWS V14.01,2013-09-08 03:19:00,
2013-09-07 23:24:00,68.7,65.0,29.96,WNW,301,0.0,0.0,88,0.00,,---,0.04,VWS V14.01,2013-09-08 03:24:00,
2013-09-07 23:29:00,68.7,65.0,29.96,NW,311,0.0,0.0,88,0.00,,---,0.04,VWS V14.01,2013-09-08 03:29:00,
2013-09-07 23:34:00,68.7,65.0,29.96,NW,311,0.0,0.0,88,0.00,,---,0.04,VWS V14.01,2013-09-08 03:34:00,
2013-09-07 23:39:00,68.7,65.0,29.96,WNW,287,0.0,0.0,88,0.00,,---,0.04,VWS V14.01,2013-09-08 03:39:00,
2013-09-07 23:44:00,68.7,65.0,29.96,NW,326,0.0,0.0,88,0.00,,---,0.04,VWS V14.01,2013-09-08 03:44:00,
2013-09-07 23:49:00,68.7,65.0,29.96,NW,315,6.3,6.3,88,0.00,,---,0.04,VWS V14.01,2013-09-08 03:49:00,
2013-09-07 23:54:00,68.7,65.0,29.96,NW,319,5.4,5.4,88,0.00,,---,0.04,VWS V14.01,2013-09-08 03:54:00,
2013-09-07 23:59:00,68.7,65.0,29.96,North,349,0.0,0.0,88,0.00,,---,0.00,VWS V14.01,2013-09-08 03:59:00,